Time;durP1;ratioP1;P1;durP2;ratioP2;P2;SDS_P1;SDS_P2;PMS_P1;PMS_P2;Temp;Humidity;BMP_temperature;BMP_pressure;BME280_temperature;BME280_humidity;BME280_pressure;Samples;Min_cycle;Max_cycle;Signal;HPM_P1;HPM_P2
2020/12/15 00:01:54;;;;;;;6.57;3.10;;;;;;;-144.99;100.00;52499.06;5069484;28;20259;-68
2020/12/15 00:04:21;;;;;;;4.33;3.13;;;;;;;-144.99;100.00;52537.78;5068879;28;20266;-68
2020/12/15 00:06:47;;;;;;;6.00;2.57;;;;;;;-144.99;100.00;52501.09;5068834;28;20292;-68
2020/12/15 00:09:14;;;;;;;5.13;2.90;;;;;;;-144.99;100.00;52537.78;5068945;28;20303;-67
2020/12/15 00:11:40;;;;;;;5.97;2.30;;;;;;;-144.99;100.00;52492.94;5069241;28;20303;-66
2020/12/15 00:14:06;;;;;;;3.70;2.40;;;;;;;-144.99;100.00;52541.84;5068588;28;20280;-67
2020/12/15 00:16:32;;;;;;;4.83;2.60;;;;;;;-144.99;100.00;52484.78;5068757;28;20215;-68
2020/12/15 00:18:58;;;;;;;7.00;3.10;;;;;;;-144.99;100.00;52511.28;5063168;28;20248;-68
2020/12/15 00:21:26;;;;;;;4.50;2.27;;;;;;;-144.99;100.00;52537.78;5062607;28;20284;-68
2020/12/15 00:23:54;;;;;;;5.33;2.23;;;;;;;-144.99;100.00;52488.84;5068758;28;20217;-68
2020/12/15 00:26:21;;;;;;;5.50;2.43;;;;;;;-144.99;100.00;52537.78;5068624;28;20209;-68
2020/12/15 00:28:48;;;;;;;4.50;3.23;;;;;;;-144.99;100.00;52488.84;5067836;28;20232;-68
2020/12/15 00:31:18;;;;;;;4.37;2.20;;;;;;;-144.99;100.00;52509.25;5068511;28;20212;-68
2020/12/15 00:33:45;;;;;;;3.03;1.90;;;;;;;-144.99;100.00;52525.56;5059611;28;20283;-69
2020/12/15 00:36:19;;;;;;;5.00;2.03;;;;;;;-144.99;100.00;52541.84;5066459;28;20201;-69
2020/12/15 00:38:47;;;;;;;5.07;2.93;;;;;;;-144.99;100.00;52501.09;5068714;28;20714;-67
2020/12/15 00:41:13;;;;;;;6.23;4.73;;;;;;;-144.99;100.00;52539.81;5068554;28;20296;-67
2020/12/15 00:43:39;;;;;;;5.20;3.80;;;;;;;-144.99;100.00;52521.47;5069020;28;20315;-67
2020/12/15 00:46:05;;;;;;;5.40;2.60;;;;;;;-144.99;100.00;52509.25;5067529;28;20704;-68
2020/12/15 00:48:31;;;;;;;4.70;3.07;;;;;;;-144.99;100.00;52488.84;5058682;28;20746;-68
2020/12/15 00:50:57;;;;;;;5.03;2.67;;;;;;;-144.99;100.00;52513.31;5065826;28;20315;-68
2020/12/15 00:53:24;;;;;;;4.40;3.13;;;;;;;-144.99;100.00;52550.00;5067932;28;20239;-68
2020/12/15 00:55:53;;;;;;;4.47;2.90;;;;;;;-144.99;100.00;52517.41;5067785;28;20749;-68
2020/12/15 00:58:19;;;;;;;7.43;3.27;;;;;;;-144.99;100.00;52505.16;5067846;28;20249;-68
2020/12/15 01:00:45;;;;;;;4.60;2.97;;;;;;;-144.99;100.00;52511.28;5067038;28;20587;-67
2020/12/15 01:03:11;;;;;;;4.40;2.50;;;;;;;-144.99;100.00;52525.56;5067610;28;20259;-68
2020/12/15 01:05:37;;;;;;;4.60;3.43;;;;;;;-144.99;100.00;52499.06;5067541;28;20201;-67
2020/12/15 01:08:04;;;;;;;3.63;2.40;;;;;;;-144.99;100.00;52550.00;5067241;28;20601;-67
2020/12/15 01:10:30;;;;;;;8.77;4.17;;;;;;;-144.99;100.00;52539.81;5066293;28;20777;-68
2020/12/15 01:12:57;;;;;;;3.10;2.60;;;;;;;-144.99;100.00;52519.44;5067279;28;20307;-68
2020/12/15 01:15:23;;;;;;;4.30;3.10;;;;;;;-144.99;100.00;52529.63;5068334;28;20199;-69
2020/12/15 01:17:57;;;;;;;5.09;3.17;;;;;;;-144.99;100.00;52554.09;4983817;28;10001228;-68
2020/12/15 01:20:23;;;;;;;5.87;3.30;;;;;;;-144.99;100.00;52550.00;5056254;28;21136;-66
2020/12/15 01:22:49;;;;;;;5.33;3.23;;;;;;;-144.99;100.00;52482.75;5069346;28;20770;-67
2020/12/15 01:25:15;;;;;;;5.20;3.50;;;;;;;-144.99;100.00;52492.94;5069495;28;20236;-68
2020/12/15 01:27:41;;;;;;;4.33;3.10;;;;;;;-144.99;100.00;52501.09;5068820;28;20237;-68
2020/12/15 01:30:08;;;;;;;7.53;4.00;;;;;;;-144.99;100.00;52541.84;5069849;28;20738;-67
2020/12/15 01:32:34;;;;;;;5.30;3.57;;;;;;;-144.99;100.00;52505.16;5069219;28;20221;-68
2020/12/15 01:35:01;;;;;;;5.37;3.80;;;;;;;-144.99;100.00;52545.94;5056629;28;20326;-69
2020/12/15 01:37:27;;;;;;;4.87;3.17;;;;;;;-144.99;100.00;52509.25;5070175;28;20232;-68
2020/12/15 01:39:53;;;;;;;4.67;3.13;;;;;;;-144.99;100.00;52472.56;5069428;28;20196;-68
2020/12/15 01:42:19;;;;;;;3.87;2.53;;;;;;;-144.99;100.00;52513.31;5069447;28;20268;-68
2020/12/15 01:44:45;;;;;;;5.77;3.13;;;;;;;-144.99;100.00;52533.69;5069592;28;20239;-68
2020/12/15 01:47:14;;;;;;;5.07;3.27;;;;;;;-144.99;100.00;52517.41;5069508;28;20236;-69
2020/12/15 01:49:41;;;;;;;4.67;2.80;;;;;;;-144.99;100.00;52505.16;5059040;28;20312;-68
2020/12/15 01:52:07;;;;;;;5.03;3.80;;;;;;;-144.99;100.00;52537.78;5069349;28;20304;-68
2020/12/15 01:54:33;;;;;;;5.20;2.53;;;;;;;-144.99;100.00;52509.25;5068944;28;20193;-68
2020/12/15 01:57:00;;;;;;;4.53;3.00;;;;;;;-144.99;100.00;52497.00;5068945;28;20297;-66
2020/12/15 01:59:27;;;;;;;4.53;3.20;;;;;;;-144.99;100.00;52554.09;5069607;28;20292;-66
2020/12/15 02:01:53;;;;;;;5.33;4.53;;;;;;;-144.99;100.00;52505.16;5069561;28;20281;-67
2020/12/15 02:04:21;;;;;;;10.47;3.90;;;;;;;-144.99;100.00;52562.25;5069464;28;20878;-68
2020/12/15 02:06:49;;;;;;;5.10;3.10;;;;;;;-144.99;100.00;52545.94;5069501;28;20244;-68
2020/12/15 02:09:17;;;;;;;5.80;3.20;;;;;;;-144.99;100.00;52486.81;5069139;28;20256;-69
2020/12/15 02:11:44;;;;;;;4.33;3.77;;;;;;;-144.99;100.00;52533.69;5068328;28;20668;-68
2020/12/15 02:14:11;;;;;;;8.83;4.00;;;;;;;-144.99;100.00;52527.59;5064008;28;20275;-68
2020/12/15 02:16:40;;;;;;;4.73;3.33;;;;;;;-144.99;100.00;52494.97;5069346;28;20300;-68
2020/12/15 02:19:07;;;;;;;6.67;2.60;;;;;;;-144.99;100.00;52501.09;5062694;28;20838;-68
2020/12/15 02:21:53;;;;;;;3.43;2.77;;;;;;;-144.99;100.00;52556.13;5064734;28;20207;-68
2020/12/15 02:24:19;;;;;;;4.73;2.73;;;;;;;-144.99;100.00;52513.31;5071043;28;20208;-68
2020/12/15 02:26:46;;;;;;;4.47;2.93;;;;;;;-144.99;100.00;52509.25;5069753;28;20464;-69
2020/12/15 02:29:12;;;;;;;4.20;3.30;;;;;;;-144.99;100.00;52523.50;5068670;28;20244;-69
2020/12/15 02:31:38;;;;;;;4.80;3.30;;;;;;;-144.99;100.00;52541.84;5069486;28;20248;-69
2020/12/15 02:34:05;;;;;;;5.90;3.53;;;;;;;-144.99;100.00;52492.94;5070360;28;20201;-69
2020/12/15 02:36:31;;;;;;;5.50;3.73;;;;;;;-144.99;100.00;52501.09;5069061;28;20228;-69
2020/12/15 02:39:05;;;;;;;4.20;2.83;;;;;;;-144.99;100.00;52509.25;5069002;28;20251;-69
2020/12/15 02:41:31;;;;;;;4.17;3.50;;;;;;;-144.99;100.00;52497.00;5069049;28;20284;-69
2020/12/15 02:43:57;;;;;;;5.50;3.43;;;;;;;-144.99;100.00;52517.41;5069727;28;20236;-68
2020/12/15 02:46:23;;;;;;;4.93;2.97;;;;;;;-144.99;100.00;52509.25;5068610;28;20514;-69
2020/12/15 02:48:49;;;;;;;7.77;3.03;;;;;;;-144.99;100.00;52523.50;5068073;28;20299;-67
2020/12/15 02:51:15;;;;;;;5.17;3.43;;;;;;;-144.99;100.00;52492.94;5068319;28;20316;-68
2020/12/15 02:53:42;;;;;;;5.27;3.40;;;;;;;-144.99;100.00;52513.31;5069089;28;20308;-68
2020/12/15 02:56:09;;;;;;;6.13;2.90;;;;;;;-144.99;100.00;52517.41;5068590;28;20291;-68
2020/12/15 02:58:35;;;;;;;9.27;3.40;;;;;;;-144.99;100.00;52533.69;5068456;28;20201;-69
2020/12/15 03:01:02;;;;;;;5.50;2.93;;;;;;;-144.99;100.00;52525.56;5069026;28;20197;-67
2020/12/15 03:03:28;;;;;;;6.17;3.97;;;;;;;-144.99;100.00;52517.41;5067914;28;20224;-68
2020/12/15 03:05:54;;;;;;;5.50;3.87;;;;;;;-144.99;100.00;52519.44;5068473;28;20292;-67
2020/12/15 03:08:21;;;;;;;5.07;3.27;;;;;;;-144.99;100.00;52545.94;5068649;28;20209;-68
2020/12/15 03:10:47;;;;;;;5.40;4.33;;;;;;;-144.99;100.00;52525.56;5069747;28;20228;-68
2020/12/15 03:13:14;;;;;;;6.53;3.00;;;;;;;-144.99;100.00;52517.41;5069520;28;20299;-68
2020/12/15 03:15:40;;;;;;;5.10;3.63;;;;;;;-144.99;100.00;52525.56;5068969;28;20201;-69
2020/12/15 03:18:06;;;;;;;5.40;3.50;;;;;;;-144.99;100.00;52480.72;5068177;28;20285;-69
2020/12/15 03:20:32;;;;;;;6.67;3.87;;;;;;;-144.99;100.00;52529.63;5057217;28;20350;-68
2020/12/15 03:22:58;;;;;;;4.97;3.53;;;;;;;-144.99;100.00;52545.94;5069204;28;20232;-68
2020/12/15 03:25:24;;;;;;;3.97;2.53;;;;;;;-144.99;100.00;52517.41;5069159;28;20240;-69
2020/12/15 03:27:50;;;;;;;5.80;3.63;;;;;;;-144.99;100.00;52513.31;5069380;28;20219;-67
2020/12/15 03:30:17;;;;;;;4.07;2.70;;;;;;;-144.99;100.00;52523.50;5070495;28;20216;-68
2020/12/15 03:32:44;;;;;;;7.13;4.10;;;;;;;-144.99;100.00;52537.78;5071582;28;20224;-67
2020/12/15 03:35:12;;;;;;;4.77;3.50;;;;;;;-144.99;100.00;52521.47;5075233;28;20205;-68
2020/12/15 03:37:38;;;;;;;6.33;4.10;;;;;;;-144.99;100.00;52541.84;5072674;28;20228;-69
2020/12/15 03:40:05;;;;;;;6.67;2.93;;;;;;;-144.99;100.00;52509.25;5073180;28;20284;-67
2020/12/15 03:42:31;;;;;;;5.53;4.43;;;;;;;-144.99;100.00;52521.47;5072608;28;20236;-67
2020/12/15 03:44:57;;;;;;;8.70;4.30;;;;;;;-144.99;100.00;52537.78;5072229;28;20609;-67
2020/12/15 03:47:24;;;;;;;6.23;3.40;;;;;;;-144.99;100.00;52556.13;5072302;28;20284;-67
2020/12/15 03:49:50;;;;;;;5.23;3.53;;;;;;;-144.99;100.00;52476.63;5072559;28;20307;-67
2020/12/15 03:52:16;;;;;;;5.33;3.03;;;;;;;-144.99;100.00;52513.31;5072886;28;20311;-67
2020/12/15 03:54:42;;;;;;;4.47;3.03;;;;;;;-144.99;100.00;52488.84;5071962;28;20304;-68
2020/12/15 03:57:08;;;;;;;4.90;3.00;;;;;;;-144.99;100.00;52482.75;5071718;28;20209;-67
2020/12/15 03:59:34;;;;;;;5.57;3.53;;;;;;;-144.99;100.00;52537.78;5071654;28;20659;-68
2020/12/15 04:02:01;;;;;;;7.47;3.73;;;;;;;-144.99;100.00;52515.34;5071831;28;20315;-67
2020/12/15 04:04:28;;;;;;;7.37;4.27;;;;;;;-144.99;100.00;52517.41;5071559;28;20213;-67
2020/12/15 04:06:54;;;;;;;7.73;3.60;;;;;;;-144.99;100.00;52509.25;5072137;28;20272;-67
2020/12/15 04:09:20;;;;;;;6.93;3.70;;;;;;;-144.99;100.00;52537.78;5071180;28;20209;-67
2020/12/15 04:11:47;;;;;;;4.60;3.70;;;;;;;-144.99;100.00;52531.66;5071564;28;20267;-68
2020/12/15 04:14:13;;;;;;;5.43;3.67;;;;;;;-144.99;100.00;52529.63;5071745;28;20251;-67
2020/12/15 04:16:39;;;;;;;6.00;4.97;;;;;;;-144.99;100.00;52545.94;5071588;28;20283;-67
2020/12/15 04:19:05;;;;;;;6.80;3.33;;;;;;;-144.99;100.00;52586.69;5065249;28;20221;-68
2020/12/15 04:21:32;;;;;;;4.37;3.60;;;;;;;-144.99;100.00;52517.41;5066252;28;20638;-67
2020/12/15 04:23:58;;;;;;;4.67;3.90;;;;;;;-144.99;100.00;52513.31;5071608;28;20197;-68
2020/12/15 04:26:24;;;;;;;6.17;3.70;;;;;;;-144.99;100.00;52523.50;5071295;28;20237;-69
2020/12/15 04:28:50;;;;;;;6.87;4.97;;;;;;;-144.99;100.00;52541.84;5071269;28;20236;-68
2020/12/15 04:31:16;;;;;;;5.00;3.47;;;;;;;-144.99;100.00;52531.66;5070912;28;20235;-69
2020/12/15 04:33:42;;;;;;;5.60;3.30;;;;;;;-144.99;100.00;52501.09;5071442;28;20523;-69
2020/12/15 04:36:08;;;;;;;6.57;3.53;;;;;;;-144.99;100.00;52511.28;5071443;28;20229;-68
2020/12/15 04:38:35;;;;;;;5.00;2.80;;;;;;;-144.99;100.00;52521.47;5071822;28;20355;-68
2020/12/15 04:41:02;;;;;;;6.60;3.77;;;;;;;-144.99;100.00;52570.38;5071027;28;20671;-68
2020/12/15 04:43:33;;;;;;;5.00;3.47;;;;;;;-144.99;100.00;52501.09;5070647;28;20248;-68
2020/12/15 04:46:02;;;;;;;6.73;4.50;;;;;;;-144.99;100.00;52484.78;5070215;28;20239;-69
2020/12/15 04:48:31;;;;;;;8.20;4.03;;;;;;;-144.99;100.00;52558.16;5062067;28;20229;-69
2020/12/15 04:51:00;;;;;;;7.50;4.17;;;;;;;-144.99;100.00;52488.84;5068728;28;20307;-67
2020/12/15 04:53:28;;;;;;;19.03;6.10;;;;;;;-144.99;100.00;52494.97;5071126;28;20747;-69
2020/12/15 04:55:57;;;;;;;5.13;2.90;;;;;;;-144.99;100.00;52537.78;5070839;28;20299;-67
2020/12/15 04:58:24;;;;;;;6.57;3.30;;;;;;;-144.99;100.00;52550.00;5070706;28;20207;-67
2020/12/15 05:00:50;;;;;;;7.40;3.67;;;;;;;-144.99;100.00;52580.59;5070986;28;20201;-67
2020/12/15 05:03:21;;;;;;;4.00;3.53;;;;;;;-144.99;100.00;52574.47;5070659;28;20315;-68
2020/12/15 05:05:50;;;;;;;6.00;3.73;;;;;;;-144.99;100.00;52501.09;5071316;28;20229;-68
2020/12/15 05:08:17;;;;;;;6.73;4.77;;;;;;;-144.99;100.00;52550.00;5072002;28;20630;-65
2020/12/15 05:10:43;;;;;;;5.67;3.80;;;;;;;-144.99;100.00;52537.78;5070774;28;20557;-68
2020/12/15 05:13:10;;;;;;;6.43;3.90;;;;;;;-144.99;100.00;52539.81;5071682;28;20247;-66
2020/12/15 05:15:36;;;;;;;6.37;3.83;;;;;;;-144.99;100.00;52529.63;5071425;28;20231;-67
2020/12/15 05:18:03;;;;;;;4.93;3.60;;;;;;;-144.99;100.00;52517.41;5071611;28;20758;-69
2020/12/15 05:20:31;;;;;;;6.67;4.17;;;;;;;-144.99;100.00;52515.34;5061018;28;20216;-69
2020/12/15 05:22:59;;;;;;;7.30;4.40;;;;;;;-144.99;100.00;52490.91;5070328;28;20304;-69
2020/12/15 05:25:26;;;;;;;7.40;4.40;;;;;;;-144.99;100.00;52509.25;5071170;28;20239;-71
2020/12/15 05:27:53;;;;;;;6.63;4.23;;;;;;;-144.99;100.00;52515.34;5070130;28;20492;-70
2020/12/15 05:30:20;;;;;;;7.33;3.87;;;;;;;-144.99;100.00;52501.09;5070467;28;20725;-69
2020/12/15 05:32:52;;;;;;;5.73;4.23;;;;;;;-144.99;100.00;52497.00;5069971;28;20262;-70
2020/12/15 05:35:26;;;;;;;4.80;3.50;;;;;;;-144.99;100.00;52513.31;5069936;28;20372;-71
2020/12/15 05:37:53;;;;;;;5.17;3.43;;;;;;;-144.99;100.00;52529.63;5070000;28;20666;-71
2020/12/15 05:40:19;;;;;;;7.10;3.57;;;;;;;-144.99;100.00;52501.09;5070113;28;20204;-69
2020/12/15 05:42:53;;;;;;;7.20;4.60;;;;;;;-144.99;100.00;52603.00;5070084;28;20715;-69
2020/12/15 05:45:21;;;;;;;4.40;3.13;;;;;;;-144.99;100.00;52488.84;5071768;28;20197;-71
2020/12/15 05:47:48;;;;;;;6.47;4.27;;;;;;;-144.99;100.00;52529.63;5069811;28;20295;-69
2020/12/15 05:50:22;;;;;;;6.10;4.03;;;;;;;-144.99;100.00;52505.16;5070080;28;20229;-69
2020/12/15 05:52:58;;;;;;;5.40;3.30;;;;;;;-144.99;100.00;52492.94;5070892;28;20281;-68
2020/12/15 05:55:24;;;;;;;5.27;3.50;;;;;;;-144.99;100.00;52533.69;5070012;28;20742;-70
2020/12/15 05:57:51;;;;;;;9.40;3.00;;;;;;;-144.99;100.00;52533.69;5070062;28;20284;-75
2020/12/15 06:00:18;;;;;;;6.67;4.17;;;;;;;-144.99;100.00;52517.41;5069809;28;20215;-71
2020/12/15 06:02:56;;;;;;;3.67;2.40;;;;;;;-144.99;100.00;52513.31;4366326;28;10021529;-70
2020/12/15 06:05:25;;;;;;;7.43;4.63;;;;;;;-144.99;100.00;52529.63;4718321;28;10001365;-75
2020/12/15 06:07:53;;;;;;;5.10;3.60;;;;;;;-144.99;100.00;52568.34;5068029;28;20726;-72
2020/12/15 06:10:20;;;;;;;5.00;3.77;;;;;;;-144.99;100.00;52460.31;5066770;28;20235;-72
2020/12/15 06:12:49;;;;;;;7.77;3.63;;;;;;;-144.99;100.00;52531.66;5066371;28;20220;-72
2020/12/15 06:15:15;;;;;;;6.77;3.20;;;;;;;-144.99;100.00;52484.78;5067297;28;20193;-71
2020/12/15 06:17:47;;;;;;;3.50;2.83;;;;;;;-144.99;100.00;52521.47;5066700;28;20239;-71
2020/12/15 06:20:13;;;;;;;4.77;3.00;;;;;;;-144.99;100.00;52501.09;5055684;28;20674;-71
2020/12/15 06:22:40;;;;;;;6.37;3.80;;;;;;;-144.99;100.00;52515.34;5067848;28;20224;-70
2020/12/15 06:25:06;;;;;;;4.13;3.03;;;;;;;-144.99;100.00;52533.69;5067713;28;20624;-70
2020/12/15 06:27:34;;;;;;;4.10;2.97;;;;;;;-144.99;100.00;52517.41;5065645;28;20652;-71
2020/12/15 06:30:00;;;;;;;5.40;3.43;;;;;;;-144.99;100.00;52513.31;5066182;28;20260;-72
2020/12/15 06:32:27;;;;;;;5.40;3.60;;;;;;;-144.99;100.00;52525.56;5066335;28;20310;-73
2020/12/15 06:34:55;;;;;;;6.10;4.30;;;;;;;-144.99;100.00;52529.63;5066213;28;20595;-71
2020/12/15 06:37:22;;;;;;;6.60;4.30;;;;;;;-144.99;100.00;52525.56;5065419;28;20205;-73
2020/12/15 06:39:56;;;;;;;5.00;4.40;;;;;;;-144.99;100.00;52525.56;5065716;28;20639;-74
2020/12/15 06:45:04;;;;;;;5.33;3.67;;;;;;;-144.99;100.00;52545.94;5062610;28;20213;-73
2020/12/15 06:47:31;;;;;;;7.37;3.93;;;;;;;-144.99;100.00;52537.78;5066211;28;20215;-73
2020/12/15 06:50:09;;;;;;;5.10;3.70;;;;;;;-144.99;100.00;52541.84;5067644;28;20279;-72
2020/12/15 06:52:35;;;;;;;5.57;3.80;;;;;;;-144.99;100.00;52515.34;5067269;28;20215;-72
2020/12/15 06:55:01;;;;;;;3.80;3.40;;;;;;;-144.99;100.00;52550.00;5067574;28;20224;-73
2020/12/15 06:57:32;;;;;;;4.87;3.73;;;;;;;-144.99;100.00;52558.16;5067352;28;20240;-74
2020/12/15 07:00:00;;;;;;;6.23;4.13;;;;;;;-144.99;100.00;52503.13;5067468;28;20200;-72
2020/12/15 07:02:30;;;;;;;6.23;3.83;;;;;;;-144.99;100.00;52533.69;5067063;28;20219;-70
2020/12/15 07:05:13;;;;;;;12.37;4.87;;;;;;;-144.99;100.00;52505.16;5064619;28;20232;-72
2020/12/15 07:07:47;;;;;;;5.97;3.40;;;;;;;-144.99;100.00;52529.63;5066891;28;20205;-71
2020/12/15 07:10:14;;;;;;;8.67;4.50;;;;;;;-144.99;100.00;52509.25;5070499;28;20273;-69
2020/12/15 07:12:41;;;;;;;8.03;4.13;;;;;;;-144.99;100.00;52537.78;5064572;28;20213;-72
2020/12/15 07:15:08;;;;;;;6.97;4.27;;;;;;;-144.99;100.00;52539.81;5071112;28;20201;-72
2020/12/15 07:17:35;;;;;;;5.50;4.17;;;;;;;-144.99;100.00;52511.28;5070090;28;20196;-72
2020/12/15 07:20:01;;;;;;;6.40;3.97;;;;;;;-144.99;100.00;52505.16;5059265;28;20730;-73
2020/12/15 07:22:28;;;;;;;4.73;3.30;;;;;;;-144.99;100.00;52545.94;5070710;28;20201;-74
2020/12/15 07:24:55;;;;;;;8.33;3.90;;;;;;;-144.99;100.00;52513.31;5071077;28;20204;-72
2020/12/15 07:27:23;;;;;;;7.80;6.27;;;;;;;-144.99;100.00;52523.50;5070787;28;20283;-74
2020/12/15 07:29:53;;;;;;;5.63;3.87;;;;;;;-144.99;100.00;52505.16;5070711;28;20328;-72
2020/12/15 07:32:19;;;;;;;5.53;3.63;;;;;;;-144.99;100.00;52494.97;5070963;28;20247;-74
2020/12/15 07:34:45;;;;;;;5.27;4.10;;;;;;;-144.99;100.00;52529.63;5069431;28;20329;-75
2020/12/15 07:37:18;;;;;;;5.50;3.80;;;;;;;-144.99;100.00;52525.56;5070167;28;20312;-74
2020/12/15 07:39:46;;;;;;;8.40;4.33;;;;;;;-144.99;100.00;52537.78;5070039;28;20254;-75
2020/12/15 07:42:12;;;;;;;9.40;5.73;;;;;;;-144.99;100.00;52513.31;5070492;28;20733;-73
2020/12/15 07:44:38;;;;;;;6.90;4.73;;;;;;;-144.99;100.00;52501.09;5069392;28;20327;-71
2020/12/15 07:47:05;;;;;;;5.67;4.43;;;;;;;-144.99;100.00;52517.41;5056880;28;20696;-72
2020/12/15 07:49:31;;;;;;;7.30;4.97;;;;;;;-144.99;100.00;52531.66;5068761;28;20800;-73
2020/12/15 07:51:57;;;;;;;8.23;3.83;;;;;;;-144.99;100.00;52509.25;5070238;28;20364;-74
2020/12/15 07:54:23;;;;;;;5.20;3.93;;;;;;;-144.99;100.00;52525.56;5069458;28;20313;-73
2020/12/15 07:56:52;;;;;;;6.23;4.37;;;;;;;-144.99;100.00;52511.28;5070058;28;20232;-76
2020/12/15 07:59:19;;;;;;;6.73;4.87;;;;;;;-144.99;100.00;52541.84;5069900;28;20291;-74
2020/12/15 08:01:46;;;;;;;6.53;4.83;;;;;;;-144.99;100.00;52529.63;5069358;28;20847;-74
2020/12/15 08:04:13;;;;;;;7.53;5.23;;;;;;;-144.99;100.00;52533.69;5069956;28;20273;-73
2020/12/15 08:06:42;;;;;;;6.30;4.77;;;;;;;-144.99;100.00;52488.84;5071625;28;20290;-73
2020/12/15 08:09:10;;;;;;;8.10;5.00;;;;;;;-144.99;100.00;52492.94;5072809;28;20287;-75
2020/12/15 08:11:36;;;;;;;7.77;4.70;;;;;;;-144.99;100.00;52488.84;5071963;28;20240;-74
2020/12/15 08:14:04;;;;;;;7.17;5.23;;;;;;;-144.99;100.00;52533.69;5062911;28;20241;-73
2020/12/15 08:16:30;;;;;;;8.17;6.40;;;;;;;-144.99;100.00;52484.78;5069085;28;20462;-75
2020/12/15 08:19:00;;;;;;;8.57;5.10;;;;;;;-144.99;100.00;52543.91;5064019;28;20263;-74
2020/12/15 08:21:38;;;;;;;5.40;4.40;;;;;;;-144.99;100.00;52513.31;5061167;28;20201;-75
2020/12/15 08:24:09;;;;;;;5.60;3.97;;;;;;;-144.99;100.00;52509.25;5069437;28;20662;-75
2020/12/15 08:26:35;;;;;;;5.33;3.70;;;;;;;-144.99;100.00;52507.19;5069811;28;20662;-73
2020/12/15 08:29:08;;;;;;;6.57;4.70;;;;;;;-144.99;100.00;52501.09;5069544;28;20213;-75
2020/12/15 08:31:35;;;;;;;6.43;4.90;;;;;;;-144.99;100.00;52529.63;5069865;28;20349;-74
2020/12/15 08:34:01;;;;;;;5.17;4.47;;;;;;;-144.99;100.00;52515.34;5069688;28;20228;-75
2020/12/15 08:36:27;;;;;;;4.83;3.47;;;;;;;-144.99;100.00;52476.63;5069130;28;20204;-73
2020/12/15 08:38:55;;;;;;;9.57;4.47;;;;;;;-144.99;100.00;52513.31;5069198;28;20315;-74
2020/12/15 08:41:21;;;;;;;7.03;4.67;;;;;;;-144.99;100.00;52525.56;5068666;28;20288;-74
2020/12/15 08:43:50;;;;;;;6.40;4.90;;;;;;;-144.99;100.00;52537.78;5069076;28;20229;-73
2020/12/15 08:46:19;;;;;;;10.03;5.13;;;;;;;-144.99;100.00;52566.31;5068438;28;20209;-74
2020/12/15 08:48:46;;;;;;;6.63;4.27;;;;;;;-144.99;100.00;52554.09;5060049;28;20335;-71
2020/12/15 08:51:17;;;;;;;8.43;4.53;;;;;;;-144.99;100.00;52550.00;5069258;28;20232;-73
2020/12/15 08:53:44;;;;;;;6.83;4.90;;;;;;;-144.99;100.00;52545.94;5068532;28;20238;-74
2020/12/15 08:56:14;;;;;;;8.03;5.10;;;;;;;-144.99;100.00;52497.00;5068708;28;20195;-73
2020/12/15 08:58:41;;;;;;;6.77;4.40;;;;;;;-144.99;100.00;52513.31;5061506;28;20209;-73
2020/12/15 09:01:08;;;;;;;6.80;4.27;;;;;;;-144.99;100.00;52472.56;5069049;28;20687;-74
2020/12/15 09:03:43;;;;;;;6.70;5.17;;;;;;;-144.99;100.00;52529.63;5066668;28;20214;-74
2020/12/15 09:06:09;;;;;;;6.87;4.20;;;;;;;-144.99;100.00;52531.66;5069077;28;20258;-72
2020/12/15 09:08:46;;;;;;;6.13;4.50;;;;;;;-144.99;100.00;52513.31;5068593;28;20255;-72
2020/12/15 09:11:13;;;;;;;6.87;4.87;;;;;;;-144.99;100.00;52537.78;5068469;28;20650;-75
2020/12/15 09:13:39;;;;;;;9.43;5.60;;;;;;;-144.99;100.00;52484.78;5068840;28;20221;-72
2020/12/15 09:16:05;;;;;;;7.07;4.57;;;;;;;-144.99;100.00;52521.47;5068035;28;20270;-72
2020/12/15 09:18:32;;;;;;;7.03;5.00;;;;;;;-144.99;100.00;52515.34;5067131;28;20209;-73
2020/12/15 09:21:09;;;;;;;4.93;4.17;;;;;;;-144.99;100.00;52517.41;5067821;28;20235;-74
2020/12/15 09:23:35;;;;;;;7.00;5.93;;;;;;;-144.99;100.00;52513.31;5068750;28;20217;-73
2020/12/15 09:26:02;;;;;;;9.57;6.80;;;;;;;-144.99;100.00;52492.94;5066334;28;20236;-74
2020/12/15 09:28:28;;;;;;;7.97;4.77;;;;;;;-144.99;100.00;52505.16;5068442;28;20216;-74
2020/12/15 09:30:55;;;;;;;8.03;5.60;;;;;;;-144.99;100.00;52513.31;5067998;28;20304;-72
2020/12/15 09:33:21;;;;;;;6.63;4.93;;;;;;;-144.99;100.00;52517.41;5067379;28;20244;-73
2020/12/15 09:35:48;;;;;;;8.73;5.30;;;;;;;-144.99;100.00;52529.63;5068310;28;20201;-74
2020/12/15 09:38:15;;;;;;;7.47;5.60;;;;;;;-144.99;100.00;52525.56;5068744;28;20225;-73
2020/12/15 09:40:41;;;;;;;7.23;5.77;;;;;;;-144.99;100.00;52558.16;5068234;28;20197;-72
2020/12/15 09:43:07;;;;;;;8.60;5.40;;;;;;;-144.99;100.00;52509.25;5067513;28;20290;-73
2020/12/15 09:45:34;;;;;;;9.97;5.77;;;;;;;-144.99;100.00;52521.47;5067914;28;20205;-73
2020/12/15 09:48:02;;;;;;;5.97;4.63;;;;;;;-144.99;100.00;52468.47;5063741;28;20216;-73
2020/12/15 09:50:29;;;;;;;6.47;5.17;;;;;;;-144.99;100.00;52517.41;5067625;28;20256;-72
2020/12/15 09:52:56;;;;;;;6.07;4.90;;;;;;;-144.99;100.00;52505.16;5068579;28;20592;-74
2020/12/15 09:55:23;;;;;;;7.93;4.60;;;;;;;-144.99;100.00;52521.47;5068176;28;20201;-74
2020/12/15 09:57:49;;;;;;;8.40;5.80;;;;;;;-144.99;100.00;52497.00;5067572;28;20220;-74
2020/12/15 10:00:15;;;;;;;6.90;5.27;;;;;;;-144.99;100.00;52517.41;5067894;28;20201;-73
2020/12/15 10:02:41;;;;;;;7.10;5.33;;;;;;;-144.99;100.00;52499.06;5067365;28;20237;-74
2020/12/15 10:05:10;;;;;;;7.90;5.80;;;;;;;-144.99;100.00;52450.13;5067977;28;20404;-74
2020/12/15 10:07:36;;;;;;;8.37;5.73;;;;;;;-144.99;100.00;52505.16;5067223;28;20205;-74
2020/12/15 10:10:03;;;;;;;8.43;5.83;;;;;;;-144.99;100.00;52482.75;5068504;28;20229;-73
2020/12/15 10:12:30;;;;;;;8.40;5.80;;;;;;;-144.99;100.00;52509.25;5061196;28;20852;-74
2020/12/15 10:14:56;;;;;;;7.30;5.30;;;;;;;-144.99;100.00;52533.69;5061981;28;20212;-73
2020/12/15 10:17:22;;;;;;;8.00;6.43;;;;;;;-144.99;100.00;52509.25;5067377;28;20205;-73
2020/12/15 10:19:49;;;;;;;6.57;5.30;;;;;;;-144.99;100.00;52521.47;5067128;28;20273;-72
2020/12/15 10:22:15;;;;;;;8.13;6.57;;;;;;;-144.99;100.00;52492.94;5067904;28;20228;-74
2020/12/15 10:24:43;;;;;;;8.27;5.00;;;;;;;-144.99;100.00;52497.00;5066865;28;20224;-73
2020/12/15 10:27:10;;;;;;;9.10;4.93;;;;;;;-144.99;100.00;52490.91;5067361;28;20201;-73
2020/12/15 10:29:37;;;;;;;8.03;5.40;;;;;;;-144.99;100.00;52480.72;5067316;28;20236;-72
2020/12/15 10:32:03;;;;;;;8.37;6.60;;;;;;;-144.99;100.00;52492.94;5067984;28;20497;-74
2020/12/15 10:34:30;;;;;;;9.40;6.03;;;;;;;-144.99;100.00;52501.09;5067392;28;20340;-74
2020/12/15 10:36:56;;;;;;;7.70;5.67;;;;;;;-144.99;100.00;52488.84;5067703;28;20308;-73
2020/12/15 10:39:23;;;;;;;7.47;5.60;;;;;;;-144.99;100.00;52505.16;5068772;28;20209;-73
2020/12/15 10:41:50;;;;;;;7.67;6.03;;;;;;;-144.99;100.00;52513.31;5068632;28;20204;-74
2020/12/15 10:44:17;;;;;;;6.93;5.27;;;;;;;-144.99;100.00;52521.47;5070363;28;20252;-75
2020/12/15 10:46:44;;;;;;;7.93;6.47;;;;;;;-144.99;100.00;52511.28;5059597;28;20275;-73
2020/12/15 10:49:10;;;;;;;7.73;5.40;;;;;;;-144.99;100.00;52537.78;5064501;28;20654;-73
2020/12/15 10:51:37;;;;;;;6.93;5.23;;;;;;;-144.99;100.00;52480.72;5068054;28;20220;-72
2020/12/15 10:54:04;;;;;;;7.30;5.97;;;;;;;-144.99;100.00;52501.09;5068241;28;20717;-72
2020/12/15 10:56:30;;;;;;;10.23;6.97;;;;;;;-144.99;100.00;52484.78;5061200;28;20232;-73
2020/12/15 10:58:56;;;;;;;7.37;5.73;;;;;;;-144.99;100.00;52517.41;5062252;28;20639;-71
2020/12/15 11:01:23;;;;;;;9.63;5.97;;;;;;;-144.99;100.00;52497.00;5067560;28;20193;-74
2020/12/15 11:03:51;;;;;;;7.20;5.00;;;;;;;-144.99;100.00;52492.94;5066375;28;20608;-73
2020/12/15 11:06:17;;;;;;;9.20;5.77;;;;;;;-144.99;100.00;52468.47;5066411;28;20221;-73
2020/12/15 11:08:43;;;;;;;7.93;5.50;;;;;;;-144.99;100.00;52468.47;5067232;28;20255;-74
2020/12/15 11:11:11;;;;;;;6.57;5.10;;;;;;;-144.99;100.00;52501.09;5066796;28;20320;-75
2020/12/15 11:13:37;;;;;;;7.80;5.23;;;;;;;-144.99;100.00;52505.16;5066640;28;20213;-74